Time;durP1;ratioP1;P1;durP2;ratioP2;P2;SDS_P1;SDS_P2;PMS_P1;PMS_P2;Temp;Humidity;BMP_temperature;BMP_pressure;BME280_temperature;BME280_humidity;BME280_pressure;Samples;Min_cycle;Max_cycle;Signal;HPM_P1;HPM_P2
2022/11/25 00:02:24;;;;;;;25.80;9.17;;;9.00;60.70;;;;;;5081373;27;20458;-87
2022/11/25 00:04:51;;;;;;;30.60;7.50;;;9.10;60.10;;;;;;5115364;27;20450;-89
2022/11/25 00:07:18;;;;;;;21.67;6.70;;;8.90;59.70;;;;;;5096171;27;20534;-87
2022/11/25 00:09:45;;;;;;;88.27;10.03;;;8.90;59.80;;;;;;5114538;27;20475;-89
2022/11/25 00:12:12;;;;;;;45.50;8.30;;;8.80;59.80;;;;;;5104765;27;20457;-87
2022/11/25 00:14:39;;;;;;;64.30;11.93;;;8.80;60.00;;;;;;5112989;27;20443;-89
2022/11/25 00:17:08;;;;;;;43.50;7.13;;;8.50;60.70;;;;;;5095916;27;20525;-89
2022/11/25 00:19:35;;;;;;;21.83;7.83;;;8.80;60.60;;;;;;5115403;27;20455;-87
2022/11/25 00:22:02;;;;;;;61.63;7.60;;;8.70;60.30;;;;;;5113652;27;20439;-87
2022/11/25 00:24:29;;;;;;;10.20;6.90;;;8.40;61.30;;;;;;5105460;27;21903;-87
2022/11/25 00:26:56;;;;;;;12.47;5.33;;;8.30;61.50;;;;;;5098539;27;21285;-83
2022/11/25 00:29:23;;;;;;;16.80;6.23;;;8.30;61.50;;;;;;5098036;27;20478;-89
2022/11/25 00:31:50;;;;;;;11.00;5.43;;;8.10;61.40;;;;;;5115286;27;20454;-87
2022/11/25 00:34:19;;;;;;;9.63;5.73;;;7.90;62.00;;;;;;5097383;27;20478;-87
2022/11/25 00:36:46;;;;;;;20.13;5.60;;;8.00;62.70;;;;;;5114892;27;20455;-90
2022/11/25 00:39:15;;;;;;;20.43;7.13;;;8.20;62.10;;;;;;5093479;27;20474;-88
2022/11/25 00:44:38;;;;;;;17.30;6.00;;;8.50;61.20;;;;;;5092829;27;20557;-87
2022/11/25 00:47:09;;;;;;;23.70;6.80;;;8.70;60.50;;;;;;5113999;27;20946;-87
2022/11/25 00:49:38;;;;;;;26.87;6.53;;;8.80;60.00;;;;;;5098266;27;20515;-88
2022/11/25 00:52:05;;;;;;;22.27;11.27;;;8.90;59.60;;;;;;5096088;27;20446;-87
2022/11/25 00:54:32;;;;;;;61.03;17.97;;;9.00;59.70;;;;;;5114383;27;20537;-88
2022/11/25 00:56:59;;;;;;;41.70;14.60;;;9.00;59.30;;;;;;5081072;27;21002;-89
2022/11/25 00:59:27;;;;;;;13.57;6.87;;;8.90;60.10;;;;;;5113730;27;20486;-87
2022/11/25 01:01:55;;;;;;;13.77;7.17;;;8.80;60.50;;;;;;5114562;27;20996;-87
2022/11/25 01:04:23;;;;;;;96.87;11.17;;;8.80;60.30;;;;;;5095148;27;20843;-88
2022/11/25 01:06:52;;;;;;;37.43;10.50;;;8.90;60.10;;;;;;5096743;27;20553;-87
2022/11/25 01:09:20;;;;;;;31.60;6.60;;;8.70;60.50;;;;;;5087189;27;20486;-87
2022/11/25 01:11:49;;;;;;;25.53;7.57;;;8.60;60.60;;;;;;5089293;27;20495;-88
2022/11/25 01:14:16;;;;;;;48.83;6.57;;;8.60;60.90;;;;;;5113677;27;20479;-87
2022/11/25 01:16:44;;;;;;;21.20;6.73;;;8.30;61.30;;;;;;5095361;27;20485;-89
2022/11/25 01:19:12;;;;;;;34.37;6.23;;;8.30;61.40;;;;;;5080465;27;20466;-87
2022/11/25 01:21:39;;;;;;;11.33;6.50;;;8.50;61.20;;;;;;5104287;27;21136;-87
2022/11/25 01:24:08;;;;;;;17.03;6.63;;;8.60;60.90;;;;;;5092172;27;20438;-89
2022/11/25 01:26:36;;;;;;;95.77;10.30;;;8.80;60.40;;;;;;5114504;27;20499;-87
2022/11/25 01:29:05;;;;;;;19.43;6.37;;;8.90;59.20;;;;;;5114529;27;20543;-84
2022/11/25 01:31:35;;;;;;;25.57;6.60;;;8.60;59.80;;;;;;5114764;27;20988;-86
2022/11/25 01:34:06;;;;;;;15.33;6.10;;;8.30;60.60;;;;;;5114355;27;20945;-87
2022/11/25 01:36:33;;;;;;;21.03;7.37;;;8.40;61.50;;;;;;5085882;27;20510;-86
2022/11/25 01:39:03;;;;;;;10.40;6.63;;;8.30;61.20;;;;;;5094357;27;20532;-85
2022/11/25 01:41:34;;;;;;;8.17;5.17;;;8.40;62.70;;;;;;5112569;27;20952;-87
2022/11/25 01:44:19;;;;;;;134.47;13.80;;;8.60;61.10;;;;;;5103706;27;20490;-87
2022/11/25 01:46:55;;;;;;;16.40;7.70;;;8.60;59.30;;;;;;5103576;27;20969;-86
2022/11/25 01:49:29;;;;;;;15.90;6.60;;;8.20;60.90;;;;;;5114236;27;20476;-89
2022/11/25 01:52:01;;;;;;;36.10;6.60;;;8.10;61.80;;;;;;5095450;27;20462;-87
2022/11/25 01:54:32;;;;;;;143.60;12.43;;;8.10;62.20;;;;;;5114507;27;20521;-87
2022/11/25 01:57:03;;;;;;;24.40;6.40;;;7.90;60.50;;;;;;5116276;27;20519;-87
2022/11/25 01:59:35;;;;;;;31.80;6.17;;;7.80;62.20;;;;;;5087375;27;20470;-87
2022/11/25 02:02:02;;;;;;;67.10;8.20;;;8.00;61.60;;;;;;5097907;28;20478;-86
2022/11/25 02:04:34;;;;;;;102.03;8.00;;;8.00;60.20;;;;;;5093761;27;20450;-87
2022/11/25 02:07:08;;;;;;;37.57;6.37;;;7.80;59.20;;;;;;5112568;27;20453;-86
2022/11/25 02:09:39;;;;;;;19.63;5.40;;;7.00;60.90;;;;;;5092953;27;21013;-88
2022/11/25 02:12:08;;;;;;;31.33;5.83;;;7.10;62.60;;;;;;5095793;28;20458;-87
2022/11/25 02:14:36;;;;;;;28.13;5.83;;;7.30;61.40;;;;;;5094805;27;20450;-87
2022/11/25 02:17:03;;;;;;;31.13;5.33;;;7.10;62.40;;;;;;5086124;28;20478;-87
2022/11/25 02:19:43;;;;;;;25.87;5.60;;;7.30;62.60;;;;;;5112770;27;20465;-89
2022/11/25 02:22:22;;;;;;;9.20;5.40;;;7.20;63.10;;;;;;5094536;28;20438;-87
2022/11/25 02:24:55;;;;;;;33.40;5.23;;;7.30;63.90;;;;;;5113663;27;21174;-86
2022/11/25 02:27:23;;;;;;;11.77;4.33;;;7.70;62.50;;;;;;5079178;27;21184;-87
2022/11/25 02:29:52;;;;;;;61.60;7.10;;;7.90;61.80;;;;;;5098257;27;20570;-86
2022/11/25 02:32:22;;;;;;;67.67;6.90;;;7.90;62.00;;;;;;5115318;27;20449;-87
2022/11/25 02:34:50;;;;;;;77.20;6.50;;;7.80;62.00;;;;;;5108815;27;20458;-87
2022/11/25 02:37:21;;;;;;;42.80;7.80;;;7.70;62.50;;;;;;5101508;27;20454;-88
2022/11/25 02:39:49;;;;;;;22.40;6.30;;;7.80;61.60;;;;;;5095922;27;20478;-87
2022/11/25 02:42:19;;;;;;;37.53;6.27;;;8.00;61.20;;;;;;5090481;27;20458;-87
2022/11/25 02:44:49;;;;;;;23.60;6.33;;;7.80;61.50;;;;;;5097769;27;20445;-87
2022/11/25 02:47:17;;;;;;;23.93;5.60;;;8.00;61.60;;;;;;5111843;27;20454;-87
2022/11/25 02:49:45;;;;;;;15.93;5.53;;;7.80;61.90;;;;;;5094747;27;20513;-87
2022/11/25 02:52:12;;;;;;;36.33;7.87;;;8.00;61.90;;;;;;5100506;27;20474;-87
2022/11/25 02:54:40;;;;;;;43.43;6.33;;;7.70;60.60;;;;;;5109109;27;21126;-87
2022/11/25 02:57:07;;;;;;;28.27;6.20;;;7.40;61.40;;;;;;5100863;27;20630;-87
2022/11/25 02:59:36;;;;;;;28.73;5.87;;;7.20;62.30;;;;;;5086674;27;20806;-88
2022/11/25 03:02:04;;;;;;;38.93;6.60;;;7.50;62.80;;;;;;5121372;27;20489;-87
2022/11/25 03:04:32;;;;;;;46.53;5.80;;;7.50;62.40;;;;;;5084791;27;20457;-88
2022/11/25 03:06:59;;;;;;;24.10;5.37;;;7.50;62.50;;;;;;5117606;27;20481;-86
2022/11/25 03:09:26;;;;;;;41.60;7.07;;;7.50;62.90;;;;;;5120037;27;20522;-86
2022/11/25 03:14:39;;;;;;;62.93;7.33;;;7.30;63.20;;;;;;5082817;27;20934;-88
2022/11/25 03:17:09;;;;;;;60.30;6.00;;;7.60;62.80;;;;;;5097901;27;20462;-88
2022/11/25 03:19:36;;;;;;;28.23;6.53;;;7.60;61.80;;;;;;5097566;27;20469;-88
2022/11/25 03:22:03;;;;;;;10.43;5.70;;;7.70;62.70;;;;;;5089328;28;20999;-87
2022/11/25 03:24:30;;;;;;;9.50;5.30;;;7.80;61.80;;;;;;5089279;27;20503;-87
2022/11/25 03:26:57;;;;;;;9.00;5.40;;;8.00;61.60;;;;;;5107504;27;20477;-90
2022/11/25 03:29:25;;;;;;;92.53;6.50;;;8.10;61.00;;;;;;5096854;27;20478;-88
2022/11/25 03:31:52;;;;;;;36.70;5.63;;;8.10;60.40;;;;;;5098769;27;20453;-89
2022/11/25 03:34:22;;;;;;;33.07;6.43;;;8.20;60.40;;;;;;5098362;27;20450;-88
2022/11/25 03:36:49;;;;;;;51.87;8.33;;;8.10;61.10;;;;;;5090296;27;20800;-86
2022/11/25 03:39:16;;;;;;;41.87;6.57;;;7.70;60.60;;;;;;5115849;27;20455;-87
2022/11/25 03:41:44;;;;;;;50.80;6.87;;;7.60;61.30;;;;;;5099977;27;20451;-86
2022/11/25 03:44:12;;;;;;;31.87;7.70;;;7.30;61.90;;;;;;5092172;27;20819;-87
2022/11/25 03:46:41;;;;;;;42.23;5.90;;;6.80;62.60;;;;;;5100456;27;21066;-86
2022/11/25 03:49:08;;;;;;;49.33;6.60;;;7.00;63.50;;;;;;5089204;27;20455;-87
2022/11/25 03:51:36;;;;;;;25.10;6.07;;;6.80;63.10;;;;;;5074246;27;20457;-86
2022/11/25 03:54:03;;;;;;;50.83;6.70;;;7.10;63.40;;;;;;5082174;28;20934;-87
2022/11/25 03:56:39;;;;;;;30.90;6.30;;;7.20;63.00;;;;;;5106206;27;20458;-88
2022/11/25 03:59:06;;;;;;;20.87;5.50;;;7.40;62.90;;;;;;5098180;27;20466;-87
2022/11/25 04:01:33;;;;;;;33.97;5.80;;;7.70;62.10;;;;;;5083021;27;20465;-88
2022/11/25 04:04:01;;;;;;;33.77;5.63;;;8.00;61.30;;;;;;5084746;27;20442;-87
2022/11/25 04:06:28;;;;;;;18.70;6.13;;;8.10;60.70;;;;;;5115668;27;21016;-87
2022/11/25 04:08:56;;;;;;;68.77;7.77;;;7.70;60.60;;;;;;5098431;27;20476;-87
2022/11/25 04:12:45;;;;;;;37.60;6.53;;;7.50;61.30;;;;;;5115201;27;20954;-85
2022/11/25 04:14:11;;;;;;;29.23;5.77;;;7.40;62.20;;;;;;5101114;27;20529;-87
2022/11/25 04:16:38;;;;;;;27.90;7.57;;;7.60;62.50;;;;;;5085134;27;20803;-88
2022/11/25 04:19:06;;;;;;;18.10;5.60;;;7.70;61.90;;;;;;5099034;27;20537;-88
2022/11/25 04:21:33;;;;;;;20.40;6.37;;;7.60;61.20;;;;;;5116382;27;21091;-85
2022/11/25 04:24:02;;;;;;;12.70;5.37;;;7.20;62.30;;;;;;5095848;27;20450;-88
2022/11/25 04:26:29;;;;;;;37.27;5.70;;;7.60;61.80;;;;;;5099174;27;20456;-88
2022/11/25 04:28:57;;;;;;;16.47;5.87;;;7.60;61.30;;;;;;5098616;27;20472;-88
2022/11/25 04:31:24;;;;;;;19.80;4.87;;;7.60;61.20;;;;;;5097842;27;20451;-86
2022/11/25 04:33:51;;;;;;;14.23;5.17;;;7.60;61.50;;;;;;5097645;27;20458;-86
2022/11/25 04:36:18;;;;;;;57.47;6.80;;;7.60;61.40;;;;;;5094209;27;20473;-87
2022/11/25 04:38:46;;;;;;;22.37;7.87;;;7.60;61.60;;;;;;5096050;27;21019;-87
2022/11/25 04:41:14;;;;;;;73.83;8.87;;;7.50;61.00;;;;;;5097851;27;20538;-86
2022/11/25 04:43:44;;;;;;;35.20;6.00;;;7.20;61.60;;;;;;5079766;27;20446;-87
2022/11/25 04:46:16;;;;;;;28.33;6.00;;;7.20;62.00;;;;;;5098398;27;20455;-88
2022/11/25 04:48:47;;;;;;;30.97;6.47;;;7.30;62.10;;;;;;5093283;27;20479;-86
2022/11/25 04:51:16;;;;;;;20.93;6.07;;;7.60;61.30;;;;;;5087803;27;20446;-89
2022/11/25 04:53:44;;;;;;;14.60;6.43;;;7.70;60.90;;;;;;5098510;27;20455;-87
2022/11/25 04:56:16;;;;;;;9.23;5.40;;;7.70;60.70;;;;;;5097622;27;20449;-89
2022/11/25 05:01:30;;;;;;;10.67;4.73;;;7.70;59.90;;;;;;5099590;27;20442;-87
2022/11/25 05:04:06;;;;;;;11.27;4.30;;;7.50;60.00;;;;;;5095684;27;20445;-88
2022/11/25 05:06:35;;;;;;;20.63;4.97;;;7.60;60.20;;;;;;5087898;27;20465;-87
2022/11/25 05:09:04;;;;;;;9.57;4.70;;;7.60;60.60;;;;;;5071329;27;20510;-86
2022/11/25 05:11:34;;;;;;;24.53;5.83;;;7.60;60.60;;;;;;5078433;27;20457;-87
2022/11/25 05:14:01;;;;;;;8.67;4.40;;;7.50;60.70;;;;;;5095632;28;20454;-87
2022/11/25 05:16:28;;;;;;;10.97;7.33;;;7.50;60.70;;;;;;5088583;27;20531;-86
2022/11/25 05:18:56;;;;;;;37.17;8.90;;;7.60;61.20;;;;;;5096912;27;20546;-86
2022/11/25 05:21:24;;;;;;;20.50;6.97;;;7.50;61.00;;;;;;5093848;27;20590;-87
2022/11/25 05:23:51;;;;;;;23.70;6.80;;;7.40;61.60;;;;;;5088891;27;20462;-86
2022/11/25 05:26:18;;;;;;;21.27;11.47;;;7.60;61.50;;;;;;5099305;27;20852;-87
2022/11/25 05:28:50;;;;;;;24.80;5.70;;;7.80;60.60;;;;;;5107727;27;20506;-87
2022/11/25 05:31:17;;;;;;;17.50;7.30;;;8.00;60.10;;;;;;5108598;27;20520;-86
2022/11/25 05:33:44;;;;;;;14.90;7.10;;;8.00;59.50;;;;;;5091769;27;20530;-86
2022/11/25 05:36:11;;;;;;;23.37;10.93;;;7.90;60.10;;;;;;5097871;27;20462;-86
2022/11/25 05:38:45;;;;;;;7.00;4.70;;;7.80;60.10;;;;;;5075518;27;20482;-87
2022/11/25 05:41:16;;;;;;;25.17;11.13;;;7.90;60.50;;;;;;5077137;27;20454;-87
2022/11/25 05:43:46;;;;;;;11.43;8.97;;;7.90;60.30;;;;;;5092694;27;20557;-86
2022/11/25 05:46:14;;;;;;;9.07;4.93;;;8.00;59.50;;;;;;5074127;27;20454;-86
2022/11/25 05:48:47;;;;;;;8.07;5.27;;;8.10;59.20;;;;;;5100993;27;20472;-87
2022/11/25 05:51:14;;;;;;;12.90;5.80;;;8.20;59.00;;;;;;5090793;27;20479;-86
2022/11/25 05:53:42;;;;;;;5.07;4.40;;;8.20;58.70;;;;;;5085799;27;20457;-88
2022/11/25 05:56:10;;;;;;;9.93;5.23;;;7.80;59.60;;;;;;5098855;28;20955;-86
2022/11/25 05:59:00;;;;;;;15.33;5.00;;;7.70;60.30;;;;;;5097074;27;20482;-86
2022/11/25 06:01:42;;;;;;;8.27;4.97;;;7.80;59.90;;;;;;5089714;27;20461;-85
2022/11/25 06:04:11;;;;;;;6.97;4.77;;;7.90;59.60;;;;;;5104942;27;20545;-86
2022/11/25 06:06:38;;;;;;;7.30;5.37;;;7.40;59.80;;;;;;5093183;27;20454;-87
2022/11/25 06:09:05;;;;;;;5.73;4.20;;;7.40;61.00;;;;;;5090108;28;20570;-86
2022/11/25 06:11:33;;;;;;;8.77;5.27;;;7.30;60.80;;;;;;5091321;27;20482;-85
2022/11/25 06:14:00;;;;;;;5.20;4.47;;;7.40;61.00;;;;;;5088342;28;20450;-87
2022/11/25 06:16:28;;;;;;;9.17;5.10;;;7.50;60.60;;;;;;5093007;27;20442;-89
2022/11/25 06:19:26;;;;;;;15.00;5.03;;;7.40;60.60;;;;;;5094261;27;21003;-86
2022/11/25 06:21:53;;;;;;;20.53;8.10;;;7.20;61.20;;;;;;5098996;27;20462;-86
2022/11/25 06:24:21;;;;;;;15.00;6.63;;;7.10;61.40;;;;;;5098398;27;20817;-86
2022/11/25 06:26:53;;;;;;;7.50;5.37;;;6.80;62.10;;;;;;5107303;27;20430;-87
2022/11/25 06:29:20;;;;;;;8.33;5.80;;;7.10;62.40;;;;;;5109718;27;20471;-87
2022/11/25 06:31:50;;;;;;;10.00;5.17;;;7.40;61.40;;;;;;5082452;27;20443;-87
2022/11/25 06:34:41;;;;;;;7.73;4.87;;;7.60;60.90;;;;;;5096657;27;20461;-87
2022/11/25 06:37:12;;;;;;;10.27;5.53;;;7.60;60.30;;;;;;5099799;28;20445;-87
2022/11/25 06:39:39;;;;;;;5.97;3.90;;;7.70;60.10;;;;;;5075759;27;20902;-89
2022/11/25 06:42:06;;;;;;;8.40;4.43;;;7.70;59.90;;;;;;5112420;27;20553;-88
2022/11/25 06:44:33;;;;;;;15.13;4.00;;;7.60;59.90;;;;;;5107561;27;20569;-90
2022/11/25 06:47:00;;;;;;;4.70;3.80;;;7.50;60.50;;;;;;5109834;27;20448;-87
2022/11/25 06:49:28;;;;;;;8.73;5.20;;;7.50;60.00;;;;;;5090047;27;20474;-89
2022/11/25 06:51:56;;;;;;;5.40;4.30;;;7.30;60.20;;;;;;5106497;27;20458;-86
2022/11/25 06:54:23;;;;;;;6.20;4.80;;;7.40;60.40;;;;;;5106873;27;20486;-86
2022/11/25 06:56:52;;;;;;;6.87;4.50;;;7.60;60.00;;;;;;5110213;27;20446;-88
2022/11/25 06:59:20;;;;;;;10.60;5.53;;;7.70;60.00;;;;;;5105723;27;21027;-86
2022/11/25 07:01:47;;;;;;;7.37;5.30;;;7.90;60.00;;;;;;5109812;27;20462;-87
2022/11/25 07:04:14;;;;;;;7.77;4.70;;;7.90;59.10;;;;;;5107134;27;20474;-87
2022/11/25 07:06:41;;;;;;;5.97;3.90;;;7.80;59.40;;;;;;5110075;27;20456;-85
2022/11/25 07:09:10;;;;;;;11.67;6.53;;;7.80;59.90;;;;;;5107322;27;20465;-87
2022/11/25 07:11:40;;;;;;;8.23;4.37;;;7.90;59.60;;;;;;5105402;27;20531;-87
2022/11/25 07:14:13;;;;;;;28.77;9.33;;;7.90;59.00;;;;;;5106243;27;20473;-84
2022/11/25 07:16:42;;;;;;;7.07;4.87;;;7.80;58.70;;;;;;5089302;27;20494;-87
2022/11/25 07:19:11;;;;;;;13.37;7.20;;;7.90;59.40;;;;;;5105552;27;20489;-86
2022/11/25 07:21:38;;;;;;;11.23;6.37;;;7.90;59.30;;;;;;5107128;27;20453;-87
2022/11/25 07:24:07;;;;;;;6.40;5.03;;;8.00;60.10;;;;;;5107445;27;21113;-86
2022/11/25 07:26:38;;;;;;;18.63;6.37;;;8.10;59.30;;;;;;5094425;27;20650;-87
2022/11/25 07:29:08;;;;;;;9.40;6.20;;;8.20;58.80;;;;;;5110550;27;20533;-87
2022/11/25 07:31:37;;;;;;;9.87;6.00;;;8.20;58.80;;;;;;5113180;27;20469;-87
2022/11/25 07:34:06;;;;;;;13.43;6.33;;;8.20;58.60;;;;;;5112055;27;20516;-87
2022/11/25 07:36:35;;;;;;;11.07;5.80;;;8.20;58.70;;;;;;5113604;27;20560;-85
2022/11/25 07:39:04;;;;;;;13.83;7.03;;;8.30;58.70;;;;;;5104876;27;20552;-87
2022/11/25 07:41:32;;;;;;;7.70;5.80;;;8.30;58.60;;;;;;5112086;27;20536;-86
2022/11/25 07:44:02;;;;;;;10.83;7.30;;;8.30;58.70;;;;;;5110051;27;20449;-86
2022/11/25 07:46:33;;;;;;;11.13;6.50;;;8.10;59.10;;;;;;5114894;27;20451;-87
2022/11/25 07:49:02;;;;;;;15.60;8.20;;;7.70;59.90;;;;;;5111947;27;20467;-86
2022/11/25 07:51:31;;;;;;;22.03;11.70;;;7.80;60.90;;;;;;5112266;27;20474;-87
2022/11/25 07:54:00;;;;;;;18.40;9.63;;;7.80;60.60;;;;;;5114707;27;20599;-86
2022/11/25 07:56:28;;;;;;;7.17;5.97;;;7.90;59.90;;;;;;5087183;27;20457;-87
2022/11/25 07:58:56;;;;;;;7.03;5.50;;;7.60;60.20;;;;;;5113370;27;21009;-86
2022/11/25 08:01:25;;;;;;;24.90;12.77;;;7.50;61.50;;;;;;5114479;27;20461;-87
2022/11/25 08:03:53;;;;;;;28.93;16.90;;;7.70;61.00;;;;;;5112551;27;20435;-86
2022/11/25 08:06:22;;;;;;;23.20;13.90;;;7.40;61.10;;;;;;5113855;27;20470;-87
2022/11/25 08:08:51;;;;;;;21.20;10.07;;;7.20;62.10;;;;;;5112882;27;20466;-87
2022/11/25 08:11:21;;;;;;;12.63;8.67;;;7.20;62.30;;;;;;5112021;27;20466;-86
2022/11/25 08:13:48;;;;;;;14.60;8.07;;;7.00;62.70;;;;;;5111614;27;20530;-87
2022/11/25 08:16:18;;;;;;;15.70;7.40;;;7.00;63.30;;;;;;5111779;27;20531;-86
2022/11/25 08:18:47;;;;;;;18.03;8.97;;;7.40;62.70;;;;;;5111702;27;20695;-87
2022/11/25 08:21:15;;;;;;;13.90;7.70;;;7.50;62.40;;;;;;5112781;27;20504;-87
2022/11/25 08:23:46;;;;;;;17.73;12.43;;;7.60;61.40;;;;;;5112977;27;20457;-87
2022/11/25 08:26:16;;;;;;;14.83;10.67;;;7.30;61.50;;;;;;5098234;27;20451;-87
2022/11/25 08:28:43;;;;;;;14.63;8.60;;;7.50;62.10;;;;;;5109189;27;20475;-87
2022/11/25 08:31:14;;;;;;;45.50;21.40;;;7.70;61.60;;;;;;5113993;27;20495;-87
2022/11/25 08:33:42;;;;;;;24.20;13.07;;;7.70;61.50;;;;;;5112169;27;20525;-87
2022/11/25 08:36:12;;;;;;;117.83;52.30;;;7.90;61.10;;;;;;5093304;27;20463;-87
2022/11/25 08:38:39;;;;;;;50.20;28.00;;;7.80;60.40;;;;;;5110419;27;20474;-87
2022/11/25 08:41:10;;;;;;;14.83;10.23;;;7.70;61.20;;;;;;5095129;27;20458;-88
2022/11/25 08:43:37;;;;;;;16.40;9.10;;;7.80;61.10;;;;;;5110482;27;20833;-86
2022/11/25 08:46:08;;;;;;;13.90;9.67;;;8.00;61.30;;;;;;5111707;27;20454;-87
2022/11/25 08:48:36;;;;;;;14.60;9.00;;;8.10;60.50;;;;;;5110384;27;20477;-87
2022/11/25 08:51:08;;;;;;;16.20;10.07;;;8.10;61.30;;;;;;5113407;27;20482;-87
2022/11/25 08:53:37;;;;;;;19.77;10.47;;;8.20;61.00;;;;;;5111432;27;21855;-87
2022/11/25 08:56:04;;;;;;;18.13;11.53;;;8.20;61.00;;;;;;5109750;27;20983;-87
2022/11/25 08:58:31;;;;;;;16.70;10.77;;;8.10;60.90;;;;;;5111626;27;20981;-87
2022/11/25 09:00:59;;;;;;;14.10;9.23;;;7.90;61.70;;;;;;5109829;27;20446;-88
2022/11/25 09:03:26;;;;;;;19.33;8.80;;;8.20;61.60;;;;;;5113201;27;20465;-86
2022/11/25 09:05:54;;;;;;;14.63;9.87;;;8.30;60.90;;;;;;5112276;27;20454;-87
2022/11/25 09:08:21;;;;;;;13.90;9.27;;;8.30;61.20;;;;;;5112757;27;20470;-87
2022/11/25 09:10:51;;;;;;;20.10;11.33;;;8.40;60.50;;;;;;5106936;27;20748;-87
2022/11/25 09:13:18;;;;;;;16.40;11.03;;;8.60;60.50;;;;;;5111568;27;20536;-86
2022/11/25 09:15:45;;;;;;;11.37;7.87;;;8.70;60.00;;;;;;5109706;27;20473;-87
2022/11/25 09:18:13;;;;;;;12.60;9.17;;;8.50;60.50;;;;;;5093404;27;20577;-86
2022/11/25 09:20:40;;;;;;;9.63;7.53;;;8.60;60.40;;;;;;5110060;27;20508;-87
2022/11/25 09:23:08;;;;;;;17.90;10.10;;;8.70;60.20;;;;;;5112381;27;20669;-87
2022/11/25 09:25:36;;;;;;;17.60;9.77;;;8.90;59.90;;;;;;5110854;27;20447;-86
2022/11/25 09:28:04;;;;;;;16.60;10.43;;;8.90;59.40;;;;;;5094453;27;20458;-88
2022/11/25 09:30:32;;;;;;;25.97;15.37;;;8.50;60.40;;;;;;5107461;27;21082;-87
2022/11/25 09:32:59;;;;;;;12.80;9.60;;;8.50;60.90;;;;;;5112938;27;21159;-87
2022/11/25 09:35:26;;;;;;;21.17;10.13;;;8.50;60.90;;;;;;5094897;27;20454;-86
2022/11/25 09:37:53;;;;;;;12.07;8.50;;;8.70;61.00;;;;;;5092863;27;20483;-87
2022/11/25 09:40:27;;;;;;;38.70;27.17;;;8.80;60.40;;;;;;5111722;27;20443;-87
2022/11/25 09:48:59;;;;;;;13.37;9.23;;;9.10;59.40;;;;;;5109152;27;20486;-87
2022/11/25 09:51:39;;;;;;;11.37;8.67;;;9.00;59.10;;;;;;5108390;27;20562;-87
2022/11/25 09:54:14;;;;;;;10.93;8.33;;;8.70;59.80;;;;;;5092846;27;20554;-87
2022/11/25 09:56:44;;;;;;;17.07;10.17;;;8.60;60.90;;;;;;5106668;27;20537;-87
2022/11/25 09:59:18;;;;;;;11.73;8.27;;;8.70;60.50;;;;;;5106884;27;21060;-87
2022/11/25 10:01:50;;;;;;;16.03;8.63;;;8.90;60.40;;;;;;5108311;27;20453;-87
2022/11/25 10:04:25;;;;;;;17.40;8.20;;;8.90;60.70;;;;;;5105425;27;20609;-89
2022/11/25 10:06:56;;;;;;;10.47;7.70;;;8.80;60.40;;;;;;5108631;27;20548;-87
2022/11/25 10:09:26;;;;;;;12.10;7.70;;;8.90;59.90;;;;;;5107996;27;20545;-87
2022/11/25 10:11:55;;;;;;;11.77;7.33;;;8.70;60.00;;;;;;5105745;27;20473;-86
2022/11/25 10:14:30;;;;;;;9.23;7.10;;;8.50;61.20;;;;;;5105063;27;20463;-88
2022/11/25 10:17:07;;;;;;;14.67;8.33;;;8.80;61.20;;;;;;5110037;27;20898;-86
2022/11/25 10:19:46;;;;;;;12.30;8.67;;;8.70;60.90;;;;;;5107412;27;20461;-87
2022/11/25 10:22:21;;;;;;;10.00;7.30;;;8.40;61.70;;;;;;5108031;27;20442;-87
2022/11/25 10:24:51;;;;;;;11.93;7.77;;;8.30;62.40;;;;;;5097361;27;20883;-87
2022/11/25 10:27:22;;;;;;;10.87;6.73;;;8.60;63.00;;;;;;5107791;27;20437;-86
2022/11/25 10:29:59;;;;;;;12.33;7.27;;;8.90;61.50;;;;;;5107710;27;21546;-87
2022/11/25 10:32:36;;;;;;;12.00;7.60;;;8.60;61.30;;;;;;5098440;27;20562;-87
2022/11/25 10:35:12;;;;;;;12.20;7.93;;;8.70;61.50;;;;;;5091108;28;21068;-86
2022/11/25 10:37:44;;;;;;;14.43;8.40;;;8.60;61.90;;;;;;5108677;27;20469;-88
2022/11/25 10:40:15;;;;;;;11.73;8.40;;;8.70;61.80;;;;;;5107236;27;21323;-87
2022/11/25 10:42:43;;;;;;;15.83;10.10;;;8.90;61.80;;;;;;5087734;27;20450;-87
2022/11/25 10:45:11;;;;;;;14.27;8.37;;;9.20;61.10;;;;;;5106757;27;20455;-87
2022/11/25 10:47:57;;;;;;;9.10;7.93;;;9.30;60.30;;;;;;5105556;27;20912;-87
2022/11/25 10:50:32;;;;;;;15.53;7.87;;;9.20;60.60;;;;;;5107927;27;20446;-88
2022/11/25 10:53:03;;;;;;;13.63;7.97;;;9.20;60.90;;;;;;5092427;27;20473;-88
2022/11/25 10:55:32;;;;;;;15.47;9.00;;;9.20;61.30;;;;;;5112514;27;20573;-86
2022/11/25 10:58:19;;;;;;;12.40;8.13;;;9.30;61.50;;;;;;5111013;27;20557;-88
2022/11/25 11:00:47;;;;;;;13.40;8.93;;;9.40;61.30;;;;;;5111035;27;20511;-87
2022/11/25 11:03:22;;;;;;;14.00;8.60;;;9.60;61.20;;;;;;5109516;27;21566;-87
2022/11/25 11:05:51;;;;;;;19.23;10.70;;;9.40;60.60;;;;;;5112064;27;20615;-88
2022/11/25 11:08:21;;;;;;;17.33;15.47;;;9.10;62.00;;;;;;5113161;27;20473;-87
2022/11/25 11:11:10;;;;;;;14.60;11.10;;;9.00;61.00;;;;;;5096940;27;20454;-87
2022/11/25 11:13:37;;;;;;;12.10;8.00;;;9.20;61.60;;;;;;5112045;27;20453;-88
2022/11/25 11:16:20;;;;;;;11.50;8.00;;;9.50;61.50;;;;;;5114904;27;20465;-88
2022/11/25 11:18:49;;;;;;;10.40;7.93;;;9.50;60.90;;;;;;5112586;27;20466;-87
2022/11/25 11:21:23;;;;;;;14.03;8.80;;;9.10;61.50;;;;;;5113530;27;20443;-87
2022/11/25 11:23:52;;;;;;;11.40;7.60;;;9.10;62.10;;;;;;5111591;27;20448;-87
2022/11/25 11:26:25;;;;;;;12.70;8.37;;;9.20;62.30;;;;;;5113477;27;20547;-88
2022/11/25 11:29:04;;;;;;;12.07;8.27;;;9.10;62.50;;;;;;5113191;27;20480;-87
2022/11/25 11:31:35;;;;;;;12.80;9.17;;;9.40;61.90;;;;;;5115226;27;20558;-87
2022/11/25 11:34:32;;;;;;;11.53;9.03;;;9.50;62.40;;;;;;5091339;27;20442;-87
2022/11/25 11:37:16;;;;;;;14.20;9.47;;;9.40;62.00;;;;;;5115300;27;21033;-88
2022/11/25 11:40:01;;;;;;;13.50;8.70;;;9.60;61.50;;;;;;5111398;27;20466;-87
2022/11/25 11:42:37;;;;;;;11.37;8.97;;;9.70;61.10;;;;;;5096031;27;20897;-87
2022/11/25 11:45:14;;;;;;;15.63;9.97;;;9.50;61.50;;;;;;5113451;27;20450;-87
2022/11/25 11:47:58;;;;;;;13.20;9.87;;;9.30;62.20;;;;;;5112394;27;20458;-88
2022/11/25 11:50:34;;;;;;;12.40;9.00;;;9.50;62.60;;;;;;5111595;27;20438;-86
2022/11/25 11:53:10;;;;;;;12.90;9.00;;;9.40;62.60;;;;;;5096921;27;20473;-87
2022/11/25 11:55:58;;;;;;;15.93;9.83;;;9.30;63.60;;;;;;5120657;27;20443;-88
2022/11/25 11:58:39;;;;;;;13.17;9.60;;;9.60;63.10;;;;;;5078538;27;20943;-87
2022/11/25 12:01:19;;;;;;;21.87;10.90;;;9.80;61.90;;;;;;5115213;27;20457;-88
2022/11/25 12:03:56;;;;;;;21.00;12.77;;;10.00;60.80;;;;;;5115443;27;20536;-87
2022/11/25 12:06:27;;;;;;;12.83;9.13;;;10.00;60.20;;;;;;5113215;27;21030;-87
2022/11/25 12:08:58;;;;;;;15.70;9.77;;;9.60;62.00;;;;;;5113356;27;20475;-88
2022/11/25 12:11:29;;;;;;;14.97;10.53;;;9.40;63.70;;;;;;5099281;27;20480;-87
2022/11/25 12:14:02;;;;;;;19.70;10.67;;;9.40;63.40;;;;;;5114014;27;20946;-87
2022/11/25 12:16:34;;;;;;;21.13;12.57;;;9.50;63.80;;;;;;5112170;27;21131;-86
2022/11/25 12:19:10;;;;;;;15.20;11.30;;;9.80;63.00;;;;;;5112317;27;20473;-86
2022/11/25 12:21:48;;;;;;;12.70;9.53;;;9.90;62.60;;;;;;5093279;27;20522;-88
2022/11/25 12:24:24;;;;;;;15.20;10.57;;;10.00;61.30;;;;;;5111884;27;20457;-85
2022/11/25 12:26:57;;;;;;;13.67;10.70;;;10.20;61.10;;;;;;5095722;27;20989;-86
2022/11/25 12:29:33;;;;;;;29.30;17.50;;;10.30;60.80;;;;;;5111874;27;20475;-87
2022/11/25 12:32:16;;;;;;;28.20;19.30;;;10.50;60.40;;;;;;5097446;27;20476;-87
2022/11/25 12:34:51;;;;;;;18.17;11.50;;;10.40;60.30;;;;;;5111422;27;20473;-87
2022/11/25 12:37:30;;;;;;;11.73;9.50;;;10.10;60.70;;;;;;5112166;27;21312;-87
2022/11/25 12:40:03;;;;;;;12.17;9.37;;;9.50;64.00;;;;;;5111911;27;20466;-87
2022/11/25 12:42:32;;;;;;;23.20;15.30;;;9.70;64.60;;;;;;5111936;27;20557;-87
2022/11/25 12:45:03;;;;;;;16.70;10.63;;;10.00;62.80;;;;;;5113383;27;20942;-87
2022/11/25 12:47:30;;;;;;;14.27;9.43;;;10.10;61.60;;;;;;5098081;27;20475;-86
2022/11/25 12:49:57;;;;;;;15.07;10.50;;;9.90;63.20;;;;;;5092540;27;20532;-87
2022/11/25 12:52:42;;;;;;;19.93;10.50;;;9.70;63.60;;;;;;5111824;27;20479;-87
2022/11/25 12:55:14;;;;;;;19.80;11.83;;;9.40;64.90;;;;;;5110752;27;21133;-87
2022/11/25 12:58:21;;;;;;;21.77;11.10;;;9.40;65.00;;;;;;5112926;27;20453;-87
2022/11/25 13:01:19;;;;;;;21.67;13.00;;;9.40;65.40;;;;;;5110765;27;20461;-87
2022/11/25 13:04:13;;;;;;;24.83;12.03;;;9.70;64.50;;;;;;5112952;27;20806;-87
2022/11/25 13:07:02;;;;;;;16.33;12.10;;;10.00;62.80;;;;;;5102321;27;20451;-88
2022/11/25 13:10:04;;;;;;;22.37;11.73;;;10.30;62.40;;;;;;5096891;27;21067;-87
2022/11/25 13:12:42;;;;;;;19.20;11.97;;;10.60;61.70;;;;;;5114182;27;21098;-88
2022/11/25 13:15:25;;;;;;;18.23;12.23;;;10.50;60.80;;;;;;5110168;27;20427;-88
2022/11/25 13:17:57;;;;;;;18.17;13.50;;;10.60;61.00;;;;;;5114736;27;20817;-87
2022/11/25 13:20:44;;;;;;;17.20;13.10;;;10.30;61.70;;;;;;5096157;27;20455;-87